createdAt,value
2018-03-28T00:00:29.356Z,22.43
2018-03-28T00:05:49.540Z,21.50
2018-03-28T00:08:17.022Z,23.23
2018-03-28T00:10:44.471Z,21.47
2018-03-28T00:13:11.952Z,22.07
2018-03-28T00:15:39.386Z,23.60
2018-03-28T00:18:06.886Z,22.17
2018-03-28T00:20:34.364Z,25.13
2018-03-28T00:23:01.878Z,22.13
2018-03-28T00:25:29.342Z,24.07
2018-03-28T00:27:56.824Z,22.80
2018-03-28T00:30:24.484Z,26.10
2018-03-28T00:32:51.916Z,26.10
2018-03-28T00:35:19.434Z,23.47
2018-03-28T00:37:46.916Z,23.67
2018-03-28T00:40:14.856Z,23.50
2018-03-28T00:42:42.336Z,25.03
2018-03-28T00:45:09.794Z,24.97
2018-03-28T00:47:37.270Z,25.03
2018-03-28T00:50:05.524Z,22.67
2018-03-28T00:52:47.217Z,24.87
2018-03-28T00:55:14.694Z,25.93
2018-03-28T00:57:42.148Z,25.47
2018-03-28T01:00:11.463Z,24.70
2018-03-28T01:02:53.166Z,27.03
2018-03-28T01:05:20.645Z,23.80
2018-03-28T01:07:48.154Z,25.73
2018-03-28T01:10:15.648Z,27.03
2018-03-28T01:12:43.230Z,25.57
2018-03-28T01:15:10.779Z,24.90
2018-03-28T01:17:38.344Z,25.60
2018-03-28T01:20:05.912Z,31.70
2018-03-28T01:22:48.047Z,25.77
2018-03-28T01:25:15.660Z,27.73
2018-03-28T01:27:43.228Z,24.13
2018-03-28T01:30:10.732Z,26.10
2018-03-28T01:32:38.280Z,26.33
2018-03-28T01:35:06.022Z,26.90
2018-03-28T01:37:33.876Z,32.73
2018-03-28T01:40:01.344Z,28.87
2018-03-28T01:42:43.102Z,26.50
2018-03-28T01:45:10.588Z,28.73
2018-03-28T01:47:38.223Z,29.10
2018-03-28T01:50:05.733Z,28.37
2018-03-28T01:52:33.545Z,28.17
2018-03-28T01:55:01.067Z,32.97
2018-03-28T01:57:28.553Z,28.70
2018-03-28T01:59:56.047Z,30.50
2018-03-28T02:02:23.540Z,28.37
2018-03-28T02:04:51.056Z,30.77
2018-03-28T02:07:18.616Z,32.07
2018-03-28T02:09:46.199Z,33.17
2018-03-28T02:12:14.517Z,29.13
2018-03-28T02:14:42.081Z,31.60
2018-03-28T02:17:09.672Z,30.53
2018-03-28T02:19:37.412Z,30.80
2018-03-28T02:24:57.445Z,32.53
2018-03-28T02:27:24.941Z,33.70
2018-03-28T02:29:52.517Z,32.57
2018-03-28T02:32:20.038Z,29.17
2018-03-28T02:34:47.542Z,32.20
2018-03-28T02:37:15.804Z,31.83
2018-03-28T02:39:43.297Z,32.83
2018-03-28T02:42:10.811Z,31.10
2018-03-28T02:44:39.453Z,34.40
2018-03-28T02:47:06.996Z,30.07
2018-03-28T02:49:34.490Z,33.80
2018-03-28T02:52:02.141Z,37.50
2018-03-28T02:54:29.714Z,32.20
2018-03-28T02:56:57.454Z,32.43
2018-03-28T02:59:25.780Z,38.83
2018-03-28T03:01:54.371Z,34.27
2018-03-28T03:04:21.966Z,27.87
2018-03-28T03:06:49.587Z,33.63
2018-03-28T03:09:17.113Z,33.33
2018-03-28T03:11:44.621Z,32.13
2018-03-28T03:14:12.186Z,33.33
2018-03-28T03:16:39.719Z,32.43
2018-03-28T03:19:07.464Z,31.93
2018-03-28T03:21:35.057Z,32.93
2018-03-28T03:24:04.952Z,30.70
2018-03-28T03:26:32.435Z,33.97
2018-03-28T03:29:00.533Z,34.13
2018-03-28T03:31:28.789Z,32.83
2018-03-28T03:33:56.328Z,35.03
2018-03-28T03:36:24.599Z,35.20
2018-03-28T03:38:52.157Z,34.93
2018-03-28T03:41:19.726Z,33.77
2018-03-28T03:43:47.243Z,35.70
2018-03-28T03:46:15.113Z,34.93
2018-03-28T03:48:42.630Z,35.80
2018-03-28T03:51:10.528Z,33.07
2018-03-28T03:53:38.022Z,35.90
2018-03-28T03:56:07.117Z,33.83
2018-03-28T03:58:35.112Z,34.63
2018-03-28T04:01:02.667Z,34.97
2018-03-28T04:03:30.231Z,37.23
2018-03-28T04:05:57.789Z,35.13
2018-03-28T04:08:25.367Z,36.07
2018-03-28T04:10:53.006Z,34.93
2018-03-28T04:13:20.523Z,35.87
2018-03-28T04:15:48.017Z,37.90
2018-03-28T04:18:15.793Z,36.37
2018-03-28T04:20:43.392Z,39.50
2018-03-28T04:23:11.073Z,38.57
2018-03-28T04:25:38.726Z,41.00
2018-03-28T04:28:06.313Z,34.87
2018-03-28T04:30:34.725Z,35.10
2018-03-28T04:33:02.363Z,37.70
2018-03-28T04:35:30.103Z,38.20
2018-03-28T04:37:57.705Z,35.63
2018-03-28T04:40:25.267Z,36.70
2018-03-28T04:42:52.869Z,36.30
2018-03-28T04:45:20.391Z,41.53
2018-03-28T04:47:48.072Z,39.40
2018-03-28T04:50:15.708Z,38.70
2018-03-28T04:52:48.229Z,37.47
2018-03-28T04:55:15.653Z,41.43
2018-03-28T04:57:43.900Z,41.10
2018-03-28T05:00:11.352Z,40.93
2018-03-28T05:02:48.510Z,38.80
2018-03-28T05:05:15.943Z,42.97
2018-03-28T05:07:43.464Z,47.20
2018-03-28T05:10:10.948Z,42.03
2018-03-28T05:12:38.488Z,42.43
2018-03-28T05:15:06.020Z,41.60
2018-03-28T05:17:33.518Z,42.43
2018-03-28T05:20:01.255Z,43.37
2018-03-28T05:22:28.939Z,42.03
2018-03-28T05:24:56.450Z,40.50
2018-03-28T05:27:24.020Z,44.27
2018-03-28T05:29:51.472Z,47.10
2018-03-28T05:32:18.986Z,44.03
2018-03-28T05:34:46.498Z,48.73
2018-03-28T05:37:15.551Z,42.10
2018-03-28T05:39:43.360Z,47.83
2018-03-28T05:42:10.998Z,47.93
2018-03-28T05:44:38.502Z,45.17
2018-03-28T05:47:06.082Z,47.47
2018-03-28T05:49:34.562Z,43.90
2018-03-28T05:52:02.772Z,48.47
2018-03-28T05:54:30.786Z,45.20
2018-03-28T05:56:58.317Z,44.27
2018-03-28T05:59:26.671Z,45.87
2018-03-28T06:01:54.334Z,49.27
2018-03-28T06:04:22.212Z,48.97
2018-03-28T06:06:50.165Z,46.40
2018-03-28T06:09:18.476Z,40.83
2018-03-28T06:11:46.172Z,49.57
2018-03-28T06:14:16.434Z,48.27
2018-03-28T06:16:44.112Z,50.90
2018-03-28T06:19:12.684Z,46.07
2018-03-28T06:21:41.666Z,50.40
2018-03-28T06:24:09.353Z,50.73
2018-03-28T06:26:36.892Z,50.47
2018-03-28T06:29:04.454Z,48.50
2018-03-28T06:31:32.407Z,48.23
2018-03-28T06:34:00.153Z,48.23
2018-03-28T06:36:27.926Z,50.27
2018-03-28T06:38:55.618Z,46.47
2018-03-28T06:41:23.193Z,50.03
2018-03-28T06:43:50.818Z,53.47
2018-03-28T06:46:18.395Z,53.87
2018-03-28T06:48:47.013Z,53.17
2018-03-28T06:51:14.642Z,53.57
2018-03-28T06:53:42.252Z,56.93
2018-03-28T06:56:09.938Z,52.73
2018-03-28T06:58:37.483Z,49.23
2018-03-28T07:01:05.028Z,52.67
2018-03-28T07:03:32.504Z,53.03
2018-03-28T07:06:00.106Z,55.53
2018-03-28T07:08:27.611Z,53.77
2018-03-28T07:10:55.293Z,56.33
2018-03-28T07:13:22.775Z,55.50
2018-03-28T07:15:50.612Z,60.37
2018-03-28T07:18:23.070Z,53.37
2018-03-28T07:20:50.615Z,57.63
2018-03-28T07:23:18.062Z,58.10
2018-03-28T07:25:45.556Z,57.13
2018-03-28T07:28:13.031Z,56.07
2018-03-28T07:30:40.598Z,51.17
2018-03-28T07:33:08.499Z,57.60
2018-03-28T07:35:36.014Z,51.63
2018-03-28T07:38:03.494Z,54.50
2018-03-28T07:40:31.857Z,55.07
2018-03-28T07:42:59.368Z,53.50
2018-03-28T07:45:26.898Z,57.73
2018-03-28T07:47:54.788Z,55.20
2018-03-28T07:50:22.316Z,56.03
2018-03-28T07:52:49.945Z,57.97
2018-03-28T07:55:17.640Z,54.37
2018-03-28T07:57:46.146Z,60.53
2018-03-28T08:00:13.648Z,59.80
2018-03-28T08:02:41.187Z,55.60
2018-03-28T08:05:08.672Z,59.20
2018-03-28T08:07:36.236Z,66.60
2018-03-28T08:10:04.108Z,56.97
2018-03-28T08:12:31.746Z,60.27
2018-03-28T08:15:00.098Z,60.90
2018-03-28T08:17:27.599Z,55.77
2018-03-28T08:19:55.058Z,59.43
2018-03-28T08:22:23.320Z,54.27
2018-03-28T08:24:53.542Z,55.43
2018-03-28T08:27:22.286Z,55.57
2018-03-28T08:29:49.842Z,53.77
2018-03-28T08:32:17.390Z,55.07
2018-03-28T08:34:45.097Z,54.03
2018-03-28T08:37:12.880Z,56.57
2018-03-28T08:39:40.416Z,55.43
2018-03-28T08:42:08.209Z,59.50
2018-03-28T08:44:35.742Z,56.90
2018-03-28T08:47:03.318Z,54.60
2018-03-28T08:49:30.783Z,52.93
2018-03-28T08:51:58.260Z,54.00
2018-03-28T08:54:25.772Z,56.73
2018-03-28T08:56:53.230Z,59.27
2018-03-28T08:59:20.784Z,53.77
2018-03-28T09:07:33.328Z,49.37
2018-03-28T09:10:00.846Z,51.97
2018-03-28T09:12:28.376Z,53.97
2018-03-28T09:14:55.852Z,56.77
2018-03-28T09:17:23.372Z,52.40
2018-03-28T09:19:50.925Z,53.67
2018-03-28T09:22:18.462Z,48.87
2018-03-28T09:24:45.990Z,50.07
2018-03-28T09:27:14.564Z,52.30
2018-03-28T09:29:42.133Z,49.77
2018-03-28T09:32:09.673Z,49.33
2018-03-28T09:34:37.210Z,47.30
2018-03-28T09:37:05.618Z,53.23
2018-03-28T09:39:33.387Z,53.67
2018-03-28T09:42:05.006Z,48.80
2018-03-28T09:44:33.185Z,45.10
2018-03-28T09:47:00.794Z,49.03
2018-03-28T09:49:28.324Z,44.90
2018-03-28T09:51:56.131Z,54.47
2018-03-28T09:54:26.334Z,43.83
2018-03-28T09:56:53.872Z,48.60
2018-03-28T09:59:21.386Z,40.90
2018-03-28T10:01:54.742Z,45.97
2018-03-28T10:04:22.282Z,46.00
2018-03-28T10:06:50.017Z,33.77
2018-03-28T10:09:17.716Z,44.77
2018-03-28T10:12:08.935Z,44.20
2018-03-28T10:14:36.633Z,43.37
2018-03-28T10:17:06.009Z,42.53
2018-03-28T10:19:33.533Z,32.23
2018-03-28T10:22:02.015Z,44.90
2018-03-28T10:24:30.884Z,46.00
2018-03-28T10:26:58.358Z,42.93
2018-03-28T10:29:25.947Z,51.27
2018-03-28T10:31:53.423Z,42.63
2018-03-28T10:34:21.069Z,43.40
2018-03-28T10:36:48.528Z,40.40
2018-03-28T10:39:16.059Z,44.43
2018-03-28T10:41:53.224Z,41.30
2018-03-28T10:44:20.659Z,44.93
2018-03-28T10:46:48.475Z,39.57
2018-03-28T10:49:16.024Z,43.60
2018-03-28T10:51:43.614Z,38.20
2018-03-28T10:54:11.082Z,40.97
2018-03-28T10:56:38.677Z,37.67
2018-03-28T10:59:06.878Z,37.27
2018-03-28T11:01:34.426Z,80.70
2018-03-28T11:04:01.879Z,52.03
2018-03-28T11:06:29.607Z,28.77
2018-03-28T11:08:57.813Z,40.47
2018-03-28T11:11:25.466Z,38.27
2018-03-28T11:13:53.065Z,38.87
2018-03-28T11:16:20.857Z,36.67
2018-03-28T11:18:48.521Z,29.80
2018-03-28T11:21:22.317Z,33.00
2018-03-28T11:23:49.927Z,36.40
2018-03-28T11:26:17.755Z,34.73
2018-03-28T11:28:47.048Z,34.77
2018-03-28T11:34:21.755Z,24.67
2018-03-28T11:36:49.427Z,29.07
2018-03-28T11:39:17.335Z,23.53
2018-03-28T11:42:04.167Z,29.97
2018-03-28T11:44:31.975Z,25.90
2018-03-28T11:46:59.981Z,30.87
2018-03-28T11:49:27.473Z,24.80
2018-03-28T11:51:54.952Z,32.83
2018-03-28T11:54:23.263Z,31.43
2018-03-28T11:56:52.507Z,29.87
2018-03-28T11:59:21.019Z,33.33
2018-03-28T12:01:49.475Z,24.30
2018-03-28T12:04:17.110Z,33.60
2018-03-28T12:06:44.888Z,22.97
2018-03-28T12:09:12.375Z,29.60
2018-03-28T12:11:39.886Z,29.37
2018-03-28T12:14:08.835Z,22.10
2018-03-28T12:16:36.475Z,31.10
2018-03-28T12:19:04.369Z,28.60
2018-03-28T12:24:30.054Z,19.07
2018-03-28T12:26:57.577Z,25.93
2018-03-28T12:29:25.497Z,19.70
2018-03-28T12:32:02.905Z,26.47
2018-03-28T12:34:30.402Z,25.60
2018-03-28T12:36:57.948Z,20.93
2018-03-28T12:39:26.195Z,28.20
2018-03-28T12:42:13.233Z,22.90
2018-03-28T12:44:40.784Z,27.57
2018-03-28T12:47:09.691Z,23.97
2018-03-28T12:49:37.538Z,26.47
2018-03-28T12:52:05.488Z,22.70
2018-03-28T12:54:33.894Z,29.63
2018-03-28T12:57:06.959Z,30.40
2018-03-28T12:59:35.485Z,23.80
2018-03-28T13:02:02.939Z,31.93
2018-03-28T13:04:30.509Z,28.57
2018-03-28T13:06:58.066Z,34.23
2018-03-28T13:09:25.741Z,24.53
2018-03-28T13:11:53.468Z,32.77
2018-03-28T13:14:21.699Z,27.33
2018-03-28T13:16:50.058Z,29.77
2018-03-28T13:19:17.942Z,24.57
2018-03-28T13:21:47.182Z,35.10
2018-03-28T13:24:14.727Z,24.97
2018-03-28T13:26:43.321Z,33.87
2018-03-28T13:29:11.125Z,26.10
2018-03-28T13:31:38.702Z,31.97
2018-03-28T13:34:08.050Z,25.23
2018-03-28T13:36:35.804Z,32.07
2018-03-28T13:39:04.153Z,26.87
2018-03-28T13:41:31.719Z,34.17
2018-03-28T13:43:59.244Z,26.17
2018-03-28T13:46:26.998Z,27.90
2018-03-28T13:48:54.832Z,24.73
2018-03-28T13:51:22.436Z,25.07
2018-03-28T13:53:49.880Z,21.37
2018-03-28T13:56:17.418Z,29.00
2018-03-28T13:58:45.100Z,20.87
2018-03-28T14:01:13.393Z,21.70
2018-03-28T14:03:41.090Z,22.00
2018-03-28T14:06:08.573Z,27.07
2018-03-28T14:08:36.131Z,22.03
2018-03-28T14:11:04.475Z,22.17
2018-03-28T14:13:32.072Z,25.03
2018-03-28T14:15:59.544Z,30.63
2018-03-28T14:18:27.214Z,43.13
2018-03-28T14:20:54.680Z,46.57
2018-03-28T14:23:27.238Z,39.67
2018-03-28T14:25:54.712Z,38.60
2018-03-28T14:28:22.435Z,47.17
2018-03-28T14:30:49.994Z,38.13
2018-03-28T14:33:17.482Z,35.93
2018-03-28T14:35:45.093Z,46.80
2018-03-28T14:38:12.684Z,43.47
2018-03-28T14:40:40.996Z,51.17
2018-03-28T14:43:08.492Z,44.67
2018-03-28T14:45:36.012Z,49.90
2018-03-28T14:48:03.672Z,43.17
2018-03-28T14:50:31.241Z,56.20
2018-03-28T14:52:58.880Z,44.07
2018-03-28T14:55:26.832Z,57.97
2018-03-28T14:57:54.358Z,46.10
2018-03-28T15:00:21.864Z,51.63
2018-03-28T15:03:13.068Z,50.00
2018-03-28T15:05:40.664Z,56.77
2018-03-28T15:08:08.192Z,46.23
2018-03-28T15:10:35.831Z,58.10
2018-03-28T15:13:03.324Z,49.10
2018-03-28T15:15:30.814Z,60.73
2018-03-28T15:17:58.292Z,48.20
2018-03-28T15:20:25.836Z,66.60
2018-03-28T15:22:53.337Z,49.23
2018-03-28T15:25:21.036Z,61.93
2018-03-28T15:27:49.343Z,63.87
2018-03-28T15:30:16.816Z,48.63
2018-03-28T15:32:44.314Z,62.90
2018-03-28T15:35:11.870Z,48.33
2018-03-28T15:37:39.591Z,67.17
2018-03-28T15:40:07.630Z,51.10
2018-03-28T15:42:45.587Z,69.83
2018-03-28T15:45:13.135Z,69.23
2018-03-28T15:47:40.854Z,69.90
2018-03-28T15:50:08.578Z,69.63
2018-03-28T15:52:36.291Z,64.27
2018-03-28T15:55:03.754Z,66.10
2018-03-28T15:57:31.239Z,63.37
2018-03-28T15:59:58.770Z,70.87
2018-03-28T16:02:26.274Z,63.10
2018-03-28T16:04:54.077Z,63.43
2018-03-28T16:07:21.571Z,65.10
2018-03-28T16:09:49.393Z,66.87
2018-03-28T16:12:17.096Z,67.13
2018-03-28T16:14:44.622Z,65.63
2018-03-28T16:17:19.852Z,65.70
2018-03-28T16:19:47.559Z,68.17
2018-03-28T16:25:12.650Z,67.37
2018-03-28T16:27:40.173Z,67.90
2018-03-28T16:30:08.921Z,63.47
2018-03-28T16:32:37.000Z,63.20
2018-03-28T16:35:04.724Z,62.93
2018-03-28T16:37:32.559Z,68.80
2018-03-28T16:40:00.338Z,66.13
2018-03-28T16:42:32.886Z,70.07
2018-03-28T16:45:00.674Z,66.47
2018-03-28T16:47:28.260Z,66.30
2018-03-28T16:49:55.766Z,72.40
2018-03-28T17:07:09.532Z,70.60
2018-03-28T17:09:37.323Z,70.27
2018-03-28T17:12:05.181Z,71.10
2018-03-28T17:14:32.639Z,71.80
2018-03-28T17:17:02.879Z,66.47
2018-03-28T17:19:30.458Z,72.03
2018-03-28T17:21:59.293Z,70.73
2018-03-28T17:24:26.852Z,72.40
2018-03-28T17:26:54.412Z,67.80
2018-03-28T17:29:22.220Z,66.30
2018-03-28T17:31:50.644Z,69.70
2018-03-28T17:34:18.117Z,52.73
2018-03-28T17:36:45.593Z,68.03
2018-03-28T17:39:13.388Z,60.00
2018-03-28T17:41:41.106Z,55.23
2018-03-28T17:44:09.057Z,57.13
2018-03-28T17:46:36.577Z,58.27
2018-03-28T17:49:04.073Z,54.10
2018-03-28T17:51:31.547Z,56.80
2018-03-28T17:53:59.062Z,45.10
2018-03-28T17:56:26.612Z,53.87
2018-03-28T17:58:54.118Z,43.50
2018-03-28T18:01:22.272Z,58.27
2018-03-28T18:03:49.762Z,42.27
2018-03-28T18:06:17.504Z,59.73
2018-03-28T18:08:45.267Z,44.23
2018-03-28T18:11:12.964Z,60.17
2018-03-28T18:13:40.540Z,45.57
2018-03-28T18:16:08.765Z,60.63
2018-03-28T18:18:36.249Z,53.90
2018-03-28T18:21:04.112Z,58.73
2018-03-28T18:23:31.755Z,61.10
2018-03-28T18:25:59.306Z,57.47
2018-03-28T18:28:27.708Z,53.10
2018-03-28T18:30:55.282Z,50.33
2018-03-28T18:33:22.846Z,52.07
2018-03-28T18:35:50.350Z,51.67
2018-03-28T18:38:17.883Z,47.93
2018-03-28T18:40:45.410Z,46.10
2018-03-28T18:43:13.150Z,45.07
2018-03-28T18:45:40.888Z,45.07
2018-03-28T18:48:08.479Z,42.00
2018-03-28T18:50:36.249Z,44.40
2018-03-28T18:53:08.738Z,42.97
2018-03-28T18:55:36.298Z,42.87
2018-03-28T18:58:04.005Z,43.47
2018-03-28T19:00:31.627Z,43.30
2018-03-28T19:02:59.191Z,44.47
2018-03-28T19:05:26.859Z,43.00
2018-03-28T19:07:54.359Z,39.27
2018-03-28T19:10:22.323Z,31.20
2018-03-28T19:12:49.764Z,40.00
2018-03-28T19:15:17.307Z,40.73
2018-03-28T19:17:44.907Z,39.37
2018-03-28T19:20:12.696Z,36.83
2018-03-28T19:22:40.450Z,39.40
2018-03-28T19:25:08.028Z,37.00
2018-03-28T19:27:35.731Z,37.17
2018-03-28T19:30:03.218Z,37.73
2018-03-28T19:32:30.785Z,36.30
2018-03-28T19:34:58.336Z,34.20
2018-03-28T19:37:25.861Z,35.37
2018-03-28T19:39:54.312Z,34.70
2018-03-28T19:42:21.847Z,33.43
2018-03-28T19:44:49.428Z,36.03
2018-03-28T19:47:17.250Z,32.87
2018-03-28T19:49:44.995Z,33.93
2018-03-28T19:55:05.350Z,34.10
2018-03-28T19:57:33.606Z,30.03
2018-03-28T20:00:01.289Z,25.60
2018-03-28T20:02:28.823Z,29.37
2018-03-28T20:05:02.332Z,21.13
2018-03-28T20:07:29.871Z,28.17
2018-03-28T20:09:57.435Z,20.90
2018-03-28T20:12:24.929Z,26.27
2018-03-28T20:14:53.308Z,19.57
2018-03-28T20:17:20.840Z,22.93
2018-03-28T20:19:48.399Z,19.13
2018-03-28T20:22:15.943Z,23.63
2018-03-28T20:24:43.546Z,17.43
2018-03-28T20:27:11.077Z,21.87
2018-03-28T20:29:38.868Z,15.63
2018-03-28T20:32:06.597Z,22.00
2018-03-28T20:34:34.137Z,15.93
2018-03-28T20:37:01.700Z,22.07
2018-03-28T20:39:29.261Z,18.53
2018-03-28T20:41:56.785Z,15.17
2018-03-28T20:44:24.332Z,20.37
2018-03-28T20:46:51.853Z,15.60
2018-03-28T20:49:19.322Z,18.83
2018-03-28T20:51:46.838Z,16.57
2018-03-28T20:54:15.191Z,17.57
2018-03-28T20:56:42.659Z,15.07
2018-03-28T20:59:11.250Z,19.17
2018-03-28T21:01:38.786Z,17.03
2018-03-28T21:04:06.319Z,17.27
2018-03-28T21:06:33.809Z,18.67
2018-03-28T21:09:01.384Z,16.70
2018-03-28T21:11:33.850Z,18.33
2018-03-28T21:14:01.440Z,17.23
2018-03-28T21:16:28.927Z,18.90
2018-03-28T21:18:56.434Z,18.87
2018-03-28T21:21:23.955Z,19.07
2018-03-28T21:23:51.457Z,22.47
2018-03-28T21:26:19.170Z,17.70
2018-03-28T21:28:46.634Z,18.20
2018-03-28T21:31:14.097Z,18.40
2018-03-28T21:33:41.817Z,19.00
2018-03-28T21:36:13.303Z,18.17
2018-03-28T21:38:40.824Z,18.23
2018-03-28T21:41:08.344Z,20.27
2018-03-28T21:43:35.849Z,17.97
2018-03-28T21:46:03.348Z,18.00
2018-03-28T21:48:31.364Z,14.07
2018-03-28T21:50:58.897Z,18.03
2018-03-28T21:53:26.762Z,16.77
2018-03-28T21:55:54.273Z,20.83
2018-03-28T21:58:21.787Z,13.73
2018-03-28T22:00:49.257Z,17.97
2018-03-28T22:03:16.729Z,16.87
2018-03-28T22:05:44.219Z,19.47
2018-03-28T22:08:11.709Z,13.73
2018-03-28T22:10:39.238Z,18.83
2018-03-28T22:13:06.730Z,14.00
2018-03-28T22:15:34.178Z,16.67
2018-03-28T22:18:01.897Z,16.50
2018-03-28T22:20:29.349Z,19.77
2018-03-28T22:22:57.442Z,13.73
2018-03-28T22:25:24.990Z,22.93
2018-03-28T22:27:52.456Z,18.97
2018-03-28T22:30:19.935Z,21.77
2018-03-28T22:32:47.571Z,16.27
2018-03-28T22:35:15.069Z,18.70
2018-03-28T22:37:42.595Z,18.47
2018-03-28T22:40:10.474Z,19.03
2018-03-28T22:42:47.590Z,23.63
2018-03-28T22:45:15.193Z,18.93
2018-03-28T22:47:42.649Z,19.00
2018-03-28T22:50:10.117Z,18.53
2018-03-28T22:52:37.877Z,19.23
2018-03-28T22:55:05.481Z,20.10
2018-03-28T22:57:33.505Z,17.93
2018-03-28T23:00:01.074Z,18.43
2018-03-28T23:02:28.536Z,19.93
2018-03-28T23:04:56.215Z,20.10
2018-03-28T23:07:23.662Z,19.90
2018-03-28T23:09:51.255Z,18.57
2018-03-28T23:12:18.968Z,21.47
2018-03-28T23:14:46.456Z,22.30
2018-03-28T23:17:14.288Z,19.83
2018-03-28T23:19:41.772Z,18.97
2018-03-28T23:22:23.460Z,19.13
2018-03-28T23:24:50.958Z,21.63
2018-03-28T23:27:18.519Z,19.03
2018-03-28T23:29:45.964Z,20.00
2018-03-28T23:32:13.486Z,20.20
2018-03-28T23:34:41.029Z,19.40
2018-03-28T23:37:08.495Z,18.80
2018-03-28T23:39:35.980Z,17.37
2018-03-28T23:42:03.744Z,19.17
2018-03-28T23:44:31.198Z,20.57
2018-03-28T23:46:58.821Z,18.27
2018-03-28T23:49:26.326Z,16.90
2018-03-28T23:51:53.785Z,18.07
2018-03-28T23:54:21.273Z,16.47
2018-03-28T23:56:48.738Z,17.27
2018-03-28T23:59:16.224Z,15.97
